sensor_id;sensor_type;location;lat;lon;timestamp;temperature;humidity
26262;DHT22;13988;52.446;13.280;2022-07-19T00:03:17;17.90;99.90
26262;DHT22;13988;52.446;13.280;2022-07-19T00:05:43;18.00;99.90
26262;DHT22;13988;52.446;13.280;2022-07-19T00:08:09;17.90;99.90
26262;DHT22;13988;52.446;13.280;2022-07-19T00:10:36;17.80;99.90
26262;DHT22;13988;52.446;13.280;2022-07-19T00:13:24;17.80;99.90
26262;DHT22;13988;52.446;13.280;2022-07-19T00:16:16;17.80;99.90
26262;DHT22;13988;52.446;13.280;2022-07-19T00:18:47;17.70;99.90
26262;DHT22;13988;52.446;13.280;2022-07-19T00:21:13;17.70;99.90
26262;DHT22;13988;52.446;13.280;2022-07-19T00:23:39;17.80;99.90
26262;DHT22;13988;52.446;13.280;2022-07-19T00:26:05;17.70;99.90
26262;DHT22;13988;52.446;13.280;2022-07-19T00:28:31;17.50;99.90
26262;DHT22;13988;52.446;13.280;2022-07-19T00:30:59;17.40;99.90
26262;DHT22;13988;52.446;13.280;2022-07-19T00:33:32;17.40;99.90
26262;DHT22;13988;52.446;13.280;2022-07-19T00:35:58;17.50;99.90
26262;DHT22;13988;52.446;13.280;2022-07-19T00:38:24;17.60;99.90
26262;DHT22;13988;52.446;13.280;2022-07-19T00:40:50;17.70;99.90
26262;DHT22;13988;52.446;13.280;2022-07-19T00:43:16;17.60;99.90
26262;DHT22;13988;52.446;13.280;2022-07-19T00:45:42;17.50;99.90
26262;DHT22;13988;52.446;13.280;2022-07-19T00:48:08;17.40;99.90
26262;DHT22;13988;52.446;13.280;2022-07-19T00:50:34;17.50;99.90
26262;DHT22;13988;52.446;13.280;2022-07-19T00:53:02;17.40;99.90
26262;DHT22;13988;52.446;13.280;2022-07-19T00:55:31;17.20;99.90
26262;DHT22;13988;52.446;13.280;2022-07-19T00:57:58;17.30;99.90
26262;DHT22;13988;52.446;13.280;2022-07-19T01:00:26;17.20;99.90
26262;DHT22;13988;52.446;13.280;2022-07-19T01:06:21;17.30;99.90
26262;DHT22;13988;52.446;13.280;2022-07-19T01:08:47;17.10;99.90
26262;DHT22;13988;52.446;13.280;2022-07-19T01:13:50;17.00;99.90
26262;DHT22;13988;52.446;13.280;2022-07-19T01:16:16;17.00;99.90
26262;DHT22;13988;52.446;13.280;2022-07-19T01:18:48;17.10;99.90
26262;DHT22;13988;52.446;13.280;2022-07-19T01:21:20;17.00;99.90
26262;DHT22;13988;52.446;13.280;2022-07-19T01:23:49;17.00;99.90
26262;DHT22;13988;52.446;13.280;2022-07-19T01:26:15;17.00;99.90
26262;DHT22;13988;52.446;13.280;2022-07-19T01:28:42;16.80;99.90
26262;DHT22;13988;52.446;13.280;2022-07-19T01:31:08;16.80;99.90
26262;DHT22;13988;52.446;13.280;2022-07-19T01:33:40;16.90;99.90
26262;DHT22;13988;52.446;13.280;2022-07-19T01:36:06;17.10;99.90
26262;DHT22;13988;52.446;13.280;2022-07-19T01:38:32;17.00;99.90
26262;DHT22;13988;52.446;13.280;2022-07-19T01:41:01;17.10;99.90
26262;DHT22;13988;52.446;13.280;2022-07-19T01:43:45;17.10;99.90
26262;DHT22;13988;52.446;13.280;2022-07-19T01:46:11;16.90;99.90
26262;DHT22;13988;52.446;13.280;2022-07-19T01:48:37;16.80;99.90
26262;DHT22;13988;52.446;13.280;2022-07-19T01:51:03;16.80;99.90
26262;DHT22;13988;52.446;13.280;2022-07-19T01:53:55;16.80;99.90
26262;DHT22;13988;52.446;13.280;2022-07-19T01:56:21;16.80;99.90
26262;DHT22;13988;52.446;13.280;2022-07-19T01:58:47;16.80;99.90
26262;DHT22;13988;52.446;13.280;2022-07-19T02:01:13;16.80;99.90
26262;DHT22;13988;52.446;13.280;2022-07-19T02:03:47;16.60;99.90
26262;DHT22;13988;52.446;13.280;2022-07-19T02:06:17;16.60;99.90
26262;DHT22;13988;52.446;13.280;2022-07-19T02:08:42;16.50;99.90
26262;DHT22;13988;52.446;13.280;2022-07-19T02:11:08;16.70;99.90
26262;DHT22;13988;52.446;13.280;2022-07-19T02:13:53;16.70;99.90
26262;DHT22;13988;52.446;13.280;2022-07-19T02:16:18;16.60;99.90
26262;DHT22;13988;52.446;13.280;2022-07-19T02:18:44;16.60;99.90
26262;DHT22;13988;52.446;13.280;2022-07-19T02:21:10;16.50;99.90
26262;DHT22;13988;52.446;13.280;2022-07-19T02:23:36;16.40;99.90
26262;DHT22;13988;52.446;13.280;2022-07-19T02:26:02;16.30;99.90
26262;DHT22;13988;52.446;13.280;2022-07-19T02:28:28;16.40;99.90
26262;DHT22;13988;52.446;13.280;2022-07-19T02:30:54;16.30;99.90
26262;DHT22;13988;52.446;13.280;2022-07-19T02:33:22;16.30;99.90
26262;DHT22;13988;52.446;13.280;2022-07-19T02:35:51;16.40;99.90
26262;DHT22;13988;52.446;13.280;2022-07-19T02:38:19;16.30;99.90
26262;DHT22;13988;52.446;13.280;2022-07-19T02:40:45;16.40;99.90
26262;DHT22;13988;52.446;13.280;2022-07-19T02:43:11;16.30;99.90
26262;DHT22;13988;52.446;13.280;2022-07-19T02:45:37;16.30;99.90
26262;DHT22;13988;52.446;13.280;2022-07-19T02:48:03;16.20;99.90
26262;DHT22;13988;52.446;13.280;2022-07-19T02:50:38;16.10;99.90
26262;DHT22;13988;52.446;13.280;2022-07-19T02:53:04;16.10;99.90
26262;DHT22;13988;52.446;13.280;2022-07-19T02:55:29;16.00;99.90
26262;DHT22;13988;52.446;13.280;2022-07-19T02:57:58;16.00;99.90
26262;DHT22;13988;52.446;13.280;2022-07-19T03:00:24;16.00;99.90
26262;DHT22;13988;52.446;13.280;2022-07-19T03:02:50;16.00;99.90
26262;DHT22;13988;52.446;13.280;2022-07-19T03:05:16;15.80;99.90
26262;DHT22;13988;52.446;13.280;2022-07-19T03:07:42;15.80;99.90
26262;DHT22;13988;52.446;13.280;2022-07-19T03:10:08;15.80;99.90
26262;DHT22;13988;52.446;13.280;2022-07-19T03:12:34;15.80;99.90
26262;DHT22;13988;52.446;13.280;2022-07-19T03:15:00;15.90;99.90
26262;DHT22;13988;52.446;13.280;2022-07-19T03:17:26;16.00;99.90
26262;DHT22;13988;52.446;13.280;2022-07-19T03:19:52;16.10;99.90
26262;DHT22;13988;52.446;13.280;2022-07-19T03:22:18;16.00;99.90
26262;DHT22;13988;52.446;13.280;2022-07-19T03:24:44;16.10;99.90
26262;DHT22;13988;52.446;13.280;2022-07-19T03:27:10;16.10;99.90
26262;DHT22;13988;52.446;13.280;2022-07-19T03:29:36;16.10;99.90
26262;DHT22;13988;52.446;13.280;2022-07-19T03:32:04;16.10;99.90
26262;DHT22;13988;52.446;13.280;2022-07-19T03:34:30;16.00;99.90
26262;DHT22;13988;52.446;13.280;2022-07-19T03:36:56;16.00;99.90
26262;DHT22;13988;52.446;13.280;2022-07-19T03:39:22;16.00;99.90
26262;DHT22;13988;52.446;13.280;2022-07-19T03:41:48;16.10;99.90
26262;DHT22;13988;52.446;13.280;2022-07-19T03:44:16;16.10;99.90
26262;DHT22;13988;52.446;13.280;2022-07-19T03:46:42;16.10;99.90
26262;DHT22;13988;52.446;13.280;2022-07-19T03:49:08;16.00;99.90
26262;DHT22;13988;52.446;13.280;2022-07-19T03:51:34;15.90;99.90
26262;DHT22;13988;52.446;13.280;2022-07-19T03:54:00;15.90;99.90
26262;DHT22;13988;52.446;13.280;2022-07-19T03:56:26;15.90;99.90
26262;DHT22;13988;52.446;13.280;2022-07-19T03:58:52;15.90;99.90
26262;DHT22;13988;52.446;13.280;2022-07-19T04:01:18;15.90;99.90
26262;DHT22;13988;52.446;13.280;2022-07-19T04:03:44;16.00;99.90
26262;DHT22;13988;52.446;13.280;2022-07-19T04:06:11;16.00;99.90
26262;DHT22;13988;52.446;13.280;2022-07-19T04:11:13;15.90;99.90
26262;DHT22;13988;52.446;13.280;2022-07-19T04:13:38;15.90;99.90
26262;DHT22;13988;52.446;13.280;2022-07-19T04:16:05;16.00;99.90
26262;DHT22;13988;52.446;13.280;2022-07-19T04:18:31;16.10;99.90
26262;DHT22;13988;52.446;13.280;2022-07-19T04:21:00;16.20;99.90
26262;DHT22;13988;52.446;13.280;2022-07-19T04:23:25;16.20;99.90
26262;DHT22;13988;52.446;13.280;2022-07-19T04:25:51;16.20;99.90
26262;DHT22;13988;52.446;13.280;2022-07-19T04:28:17;16.30;99.90
26262;DHT22;13988;52.446;13.280;2022-07-19T04:30:43;16.30;99.90
26262;DHT22;13988;52.446;13.280;2022-07-19T04:33:09;16.30;99.90
26262;DHT22;13988;52.446;13.280;2022-07-19T04:35:37;16.40;99.90
26262;DHT22;13988;52.446;13.280;2022-07-19T04:38:03;16.50;99.90
26262;DHT22;13988;52.446;13.280;2022-07-19T04:40:29;16.50;99.90
26262;DHT22;13988;52.446;13.280;2022-07-19T04:42:58;16.60;99.90
26262;DHT22;13988;52.446;13.280;2022-07-19T04:45:24;16.60;99.90
26262;DHT22;13988;52.446;13.280;2022-07-19T04:47:50;16.70;99.90
26262;DHT22;13988;52.446;13.280;2022-07-19T04:50:21;16.70;99.90
26262;DHT22;13988;52.446;13.280;2022-07-19T04:52:47;16.90;99.90
26262;DHT22;13988;52.446;13.280;2022-07-19T04:55:13;16.80;99.90
26262;DHT22;13988;52.446;13.280;2022-07-19T04:57:39;16.90;99.90
26262;DHT22;13988;52.446;13.280;2022-07-19T05:00:08;17.00;99.90
26262;DHT22;13988;52.446;13.280;2022-07-19T05:02:48;17.00;99.90
26262;DHT22;13988;52.446;13.280;2022-07-19T05:05:22;17.10;99.90
26262;DHT22;13988;52.446;13.280;2022-07-19T05:07:48;17.20;99.90
26262;DHT22;13988;52.446;13.280;2022-07-19T05:10:14;17.40;99.90
26262;DHT22;13988;52.446;13.280;2022-07-19T05:12:40;17.60;99.90
26262;DHT22;13988;52.446;13.280;2022-07-19T05:15:06;17.80;99.90
26262;DHT22;13988;52.446;13.280;2022-07-19T05:17:35;18.00;99.90
26262;DHT22;13988;52.446;13.280;2022-07-19T05:20:03;18.10;99.90
26262;DHT22;13988;52.446;13.280;2022-07-19T05:22:29;18.10;99.90
26262;DHT22;13988;52.446;13.280;2022-07-19T05:24:55;18.30;99.90
26262;DHT22;13988;52.446;13.280;2022-07-19T05:27:22;18.40;99.90
26262;DHT22;13988;52.446;13.280;2022-07-19T05:29:48;18.50;99.90
26262;DHT22;13988;52.446;13.280;2022-07-19T05:32:14;18.80;99.90
26262;DHT22;13988;52.446;13.280;2022-07-19T05:34:42;18.90;99.90
26262;DHT22;13988;52.446;13.280;2022-07-19T05:40:16;19.10;99.90
26262;DHT22;13988;52.446;13.280;2022-07-19T05:42:41;19.20;99.90
26262;DHT22;13988;52.446;13.280;2022-07-19T05:45:08;19.30;99.90
26262;DHT22;13988;52.446;13.280;2022-07-19T05:47:34;19.50;99.90
26262;DHT22;13988;52.446;13.280;2022-07-19T05:50:02;19.70;99.90
26262;DHT22;13988;52.446;13.280;2022-07-19T05:52:28;19.80;99.90
26262;DHT22;13988;52.446;13.280;2022-07-19T05:54:54;20.20;99.90
26262;DHT22;13988;52.446;13.280;2022-07-19T05:57:20;20.60;99.90
26262;DHT22;13988;52.446;13.280;2022-07-19T05:59:45;20.50;99.90
26262;DHT22;13988;52.446;13.280;2022-07-19T06:02:14;20.60;99.90
26262;DHT22;13988;52.446;13.280;2022-07-19T06:04:40;20.50;99.90
26262;DHT22;13988;52.446;13.280;2022-07-19T06:07:06;20.50;99.90
26262;DHT22;13988;52.446;13.280;2022-07-19T06:09:32;20.70;99.90
26262;DHT22;13988;52.446;13.280;2022-07-19T06:12:01;20.90;99.90
26262;DHT22;13988;52.446;13.280;2022-07-19T06:14:27;21.40;99.90
26262;DHT22;13988;52.446;13.280;2022-07-19T06:16:52;23.60;99.90
26262;DHT22;13988;52.446;13.280;2022-07-19T06:19:38;25.80;99.90
26262;DHT22;13988;52.446;13.280;2022-07-19T06:22:04;27.10;97.80
26262;DHT22;13988;52.446;13.280;2022-07-19T06:24:30;27.90;86.80
26262;DHT22;13988;52.446;13.280;2022-07-19T06:26:56;28.70;77.40
26262;DHT22;13988;52.446;13.280;2022-07-19T06:29:22;28.40;75.20
26262;DHT22;13988;52.446;13.280;2022-07-19T06:31:51;28.80;77.10
26262;DHT22;13988;52.446;13.280;2022-07-19T06:34:16;30.00;68.80
26262;DHT22;13988;52.446;13.280;2022-07-19T06:36:42;30.70;66.40
26262;DHT22;13988;52.446;13.280;2022-07-19T06:39:08;30.90;69.60
26262;DHT22;13988;52.446;13.280;2022-07-19T06:41:34;31.60;66.00
26262;DHT22;13988;52.446;13.280;2022-07-19T06:43:59;32.70;62.50
26262;DHT22;13988;52.446;13.280;2022-07-19T06:46:25;32.70;60.80
26262;DHT22;13988;52.446;13.280;2022-07-19T06:48:51;33.30;60.90
26262;DHT22;13988;52.446;13.280;2022-07-19T06:51:17;32.90;59.00
26262;DHT22;13988;52.446;13.280;2022-07-19T06:53:42;32.60;52.50
26262;DHT22;13988;52.446;13.280;2022-07-19T06:56:08;32.40;52.60
26262;DHT22;13988;52.446;13.280;2022-07-19T06:58:34;32.60;52.80
26262;DHT22;13988;52.446;13.280;2022-07-19T07:01:00;32.20;52.10
26262;DHT22;13988;52.446;13.280;2022-07-19T07:03:26;34.10;51.70
26262;DHT22;13988;52.446;13.280;2022-07-19T07:05:52;33.90;50.20
26262;DHT22;13988;52.446;13.280;2022-07-19T07:08:17;32.60;50.90
26262;DHT22;13988;52.446;13.280;2022-07-19T07:10:43;33.00;50.10
26262;DHT22;13988;52.446;13.280;2022-07-19T07:13:09;33.20;50.50
26262;DHT22;13988;52.446;13.280;2022-07-19T07:15:34;34.00;49.00
26262;DHT22;13988;52.446;13.280;2022-07-19T07:18:00;33.90;50.00
26262;DHT22;13988;52.446;13.280;2022-07-19T07:20:26;34.60;48.70
26262;DHT22;13988;52.446;13.280;2022-07-19T07:22:52;34.10;47.50
26262;DHT22;13988;52.446;13.280;2022-07-19T07:25:17;35.00;48.00
26262;DHT22;13988;52.446;13.280;2022-07-19T07:27:43;34.30;45.60
26262;DHT22;13988;52.446;13.280;2022-07-19T07:30:10;35.10;46.80
26262;DHT22;13988;52.446;13.280;2022-07-19T07:32:36;34.30;45.60
26262;DHT22;13988;52.446;13.280;2022-07-19T07:35:02;35.20;46.40
26262;DHT22;13988;52.446;13.280;2022-07-19T07:37:28;34.40;46.20
26262;DHT22;13988;52.446;13.280;2022-07-19T07:39:54;35.40;45.00
26262;DHT22;13988;52.446;13.280;2022-07-19T07:42:20;34.40;44.60
26262;DHT22;13988;52.446;13.280;2022-07-19T07:44:46;34.00;46.30
26262;DHT22;13988;52.446;13.280;2022-07-19T07:47:12;32.40;44.90
26262;DHT22;13988;52.446;13.280;2022-07-19T07:49:39;33.60;45.80
26262;DHT22;13988;52.446;13.280;2022-07-19T07:52:06;35.20;44.00
26262;DHT22;13988;52.446;13.280;2022-07-19T07:54:33;34.30;44.10
26262;DHT22;13988;52.446;13.280;2022-07-19T07:56:59;35.00;43.40
26262;DHT22;13988;52.446;13.280;2022-07-19T07:59:25;36.30;44.00
26262;DHT22;13988;52.446;13.280;2022-07-19T08:01:50;34.50;40.60
26262;DHT22;13988;52.446;13.280;2022-07-19T08:04:16;35.80;42.90
26262;DHT22;13988;52.446;13.280;2022-07-19T08:06:42;36.20;43.30
26262;DHT22;13988;52.446;13.280;2022-07-19T08:09:08;35.30;41.30
26262;DHT22;13988;52.446;13.280;2022-07-19T08:11:33;34.70;41.60
26262;DHT22;13988;52.446;13.280;2022-07-19T08:13:59;36.00;42.20
26262;DHT22;13988;52.446;13.280;2022-07-19T08:16:25;35.50;42.40
26262;DHT22;13988;52.446;13.280;2022-07-19T08:18:51;34.20;42.50
26262;DHT22;13988;52.446;13.280;2022-07-19T08:21:16;33.00;42.30
26262;DHT22;13988;52.446;13.280;2022-07-19T08:23:42;32.10;44.60
26262;DHT22;13988;52.446;13.280;2022-07-19T08:26:08;31.00;45.90
26262;DHT22;13988;52.446;13.280;2022-07-19T08:28:34;30.90;46.30
26262;DHT22;13988;52.446;13.280;2022-07-19T08:31:00;30.40;47.90
26262;DHT22;13988;52.446;13.280;2022-07-19T08:33:26;30.30;47.10
26262;DHT22;13988;52.446;13.280;2022-07-19T08:35:51;30.20;47.40
26262;DHT22;13988;52.446;13.280;2022-07-19T08:38:17;30.30;46.30
26262;DHT22;13988;52.446;13.280;2022-07-19T08:40:45;30.20;46.60
26262;DHT22;13988;52.446;13.280;2022-07-19T08:43:13;30.10;47.00
26262;DHT22;13988;52.446;13.280;2022-07-19T08:45:43;30.00;48.10
26262;DHT22;13988;52.446;13.280;2022-07-19T08:48:09;30.20;48.20
26262;DHT22;13988;52.446;13.280;2022-07-19T08:50:35;30.10;47.30
26262;DHT22;13988;52.446;13.280;2022-07-19T08:53:01;29.90;46.00
26262;DHT22;13988;52.446;13.280;2022-07-19T08:55:27;30.30;47.10
26262;DHT22;13988;52.446;13.280;2022-07-19T08:57:53;30.10;46.60
26262;DHT22;13988;52.446;13.280;2022-07-19T09:00:30;30.30;45.20
26262;DHT22;13988;52.446;13.280;2022-07-19T09:02:58;30.10;46.30
26262;DHT22;13988;52.446;13.280;2022-07-19T09:05:25;30.40;45.60
26262;DHT22;13988;52.446;13.280;2022-07-19T09:08:13;30.30;46.00
26262;DHT22;13988;52.446;13.280;2022-07-19T09:10:41;30.10;45.20
26262;DHT22;13988;52.446;13.280;2022-07-19T09:13:21;30.40;45.80
26262;DHT22;13988;52.446;13.280;2022-07-19T09:15:52;30.30;46.20
26262;DHT22;13988;52.446;13.280;2022-07-19T09:20:51;30.60;46.00
26262;DHT22;13988;52.446;13.280;2022-07-19T09:23:17;29.80;46.20
26262;DHT22;13988;52.446;13.280;2022-07-19T09:25:49;30.10;46.70
26262;DHT22;13988;52.446;13.280;2022-07-19T09:28:17;30.40;46.10
26262;DHT22;13988;52.446;13.280;2022-07-19T09:30:48;30.80;46.70
26262;DHT22;13988;52.446;13.280;2022-07-19T09:33:18;30.50;44.80
26262;DHT22;13988;52.446;13.280;2022-07-19T09:35:45;30.40;45.60
26262;DHT22;13988;52.446;13.280;2022-07-19T09:41:07;30.80;45.10
26262;DHT22;13988;52.446;13.280;2022-07-19T09:43:54;31.10;45.50
26262;DHT22;13988;52.446;13.280;2022-07-19T09:46:40;31.00;44.60
26262;DHT22;13988;52.446;13.280;2022-07-19T09:49:13;31.00;44.80
26262;DHT22;13988;52.446;13.280;2022-07-19T09:51:51;30.90;45.20
26262;DHT22;13988;52.446;13.280;2022-07-19T09:54:18;30.80;45.40
26262;DHT22;13988;52.446;13.280;2022-07-19T09:56:46;30.60;44.70
26262;DHT22;13988;52.446;13.280;2022-07-19T09:59:13;30.60;45.00
26262;DHT22;13988;52.446;13.280;2022-07-19T10:01:39;30.50;46.00
26262;DHT22;13988;52.446;13.280;2022-07-19T10:04:08;30.40;45.00
26262;DHT22;13988;52.446;13.280;2022-07-19T10:06:36;30.70;45.00
26262;DHT22;13988;52.446;13.280;2022-07-19T10:09:03;30.90;44.60
26262;DHT22;13988;52.446;13.280;2022-07-19T10:11:29;31.20;44.10
26262;DHT22;13988;52.446;13.280;2022-07-19T10:13:56;31.40;44.00
26262;DHT22;13988;52.446;13.280;2022-07-19T10:16:28;31.50;43.50
26262;DHT22;13988;52.446;13.280;2022-07-19T10:19:16;31.40;43.60
26262;DHT22;13988;52.446;13.280;2022-07-19T10:21:43;31.50;43.90
26262;DHT22;13988;52.446;13.280;2022-07-19T10:24:09;31.50;43.30
26262;DHT22;13988;52.446;13.280;2022-07-19T10:26:36;31.50;42.90
26262;DHT22;13988;52.446;13.280;2022-07-19T10:29:15;31.70;43.10
26262;DHT22;13988;52.446;13.280;2022-07-19T10:32:03;31.60;42.90
26262;DHT22;13988;52.446;13.280;2022-07-19T10:34:28;31.60;42.90
26262;DHT22;13988;52.446;13.280;2022-07-19T10:36:53;31.50;43.00
26262;DHT22;13988;52.446;13.280;2022-07-19T10:39:27;31.60;42.30
26262;DHT22;13988;52.446;13.280;2022-07-19T10:42:26;31.60;42.30
26262;DHT22;13988;52.446;13.280;2022-07-19T10:57:54;31.90;42.60
26262;DHT22;13988;52.446;13.280;2022-07-19T11:00:46;32.10;41.10
26262;DHT22;13988;52.446;13.280;2022-07-19T11:05:53;32.20;42.00
26262;DHT22;13988;52.446;13.280;2022-07-19T11:08:37;32.80;41.10
26262;DHT22;13988;52.446;13.280;2022-07-19T11:11:11;32.60;40.50
26262;DHT22;13988;52.446;13.280;2022-07-19T11:13:38;33.00;38.90
26262;DHT22;13988;52.446;13.280;2022-07-19T11:16:05;33.20;36.90
26262;DHT22;13988;52.446;13.280;2022-07-19T11:18:31;33.20;38.30
26262;DHT22;13988;52.446;13.280;2022-07-19T11:20:58;33.60;35.60
26262;DHT22;13988;52.446;13.280;2022-07-19T11:23:29;34.20;36.00
26262;DHT22;13988;52.446;13.280;2022-07-19T11:28:31;34.70;34.60
26262;DHT22;13988;52.446;13.280;2022-07-19T11:30:57;34.40;33.40
26262;DHT22;13988;52.446;13.280;2022-07-19T11:33:23;33.60;36.60
26262;DHT22;13988;52.446;13.280;2022-07-19T11:36:06;33.60;36.40
26262;DHT22;13988;52.446;13.280;2022-07-19T11:38:38;34.10;34.20
26262;DHT22;13988;52.446;13.280;2022-07-19T11:41:08;33.30;34.60
26262;DHT22;13988;52.446;13.280;2022-07-19T11:43:34;33.50;35.50
26262;DHT22;13988;52.446;13.280;2022-07-19T11:46:01;33.30;38.60
26262;DHT22;13988;52.446;13.280;2022-07-19T11:48:30;35.00;38.30
26262;DHT22;13988;52.446;13.280;2022-07-19T11:51:07;36.20;36.60
26262;DHT22;13988;52.446;13.280;2022-07-19T11:53:35;36.40;34.50
26262;DHT22;13988;52.446;13.280;2022-07-19T11:56:03;34.90;35.00
26262;DHT22;13988;52.446;13.280;2022-07-19T11:58:30;34.10;37.00
26262;DHT22;13988;52.446;13.280;2022-07-19T12:01:04;33.50;37.80
26262;DHT22;13988;52.446;13.280;2022-07-19T12:03:30;33.60;37.70
26262;DHT22;13988;52.446;13.280;2022-07-19T12:06:01;33.80;38.00
26262;DHT22;13988;52.446;13.280;2022-07-19T12:10:59;34.40;36.40
26262;DHT22;13988;52.446;13.280;2022-07-19T12:13:30;34.60;36.80
26262;DHT22;13988;52.446;13.280;2022-07-19T12:16:07;36.40;35.30
26262;DHT22;13988;52.446;13.280;2022-07-19T12:21:28;35.80;33.30
26262;DHT22;13988;52.446;13.280;2022-07-19T12:26:39;37.50;34.50
26262;DHT22;13988;52.446;13.280;2022-07-19T12:29:34;37.30;31.80
26262;DHT22;13988;52.446;13.280;2022-07-19T12:32:05;37.20;32.30
26262;DHT22;13988;52.446;13.280;2022-07-19T12:34:57;36.50;34.50
26262;DHT22;13988;52.446;13.280;2022-07-19T12:37:34;36.80;32.70
26262;DHT22;13988;52.446;13.280;2022-07-19T12:40:20;37.10;32.70
26262;DHT22;13988;52.446;13.280;2022-07-19T12:42:51;35.40;32.10
26262;DHT22;13988;52.446;13.280;2022-07-19T12:45:40;35.50;35.90
26262;DHT22;13988;52.446;13.280;2022-07-19T12:48:08;35.90;33.30
26262;DHT22;13988;52.446;13.280;2022-07-19T12:50:37;37.00;32.20
26262;DHT22;13988;52.446;13.280;2022-07-19T12:53:07;37.00;32.40
26262;DHT22;13988;52.446;13.280;2022-07-19T12:55:34;35.60;32.20
26262;DHT22;13988;52.446;13.280;2022-07-19T12:58:01;37.20;32.40
26262;DHT22;13988;52.446;13.280;2022-07-19T13:00:28;37.30;31.10
26262;DHT22;13988;52.446;13.280;2022-07-19T13:02:55;37.10;32.50
26262;DHT22;13988;52.446;13.280;2022-07-19T13:05:24;37.50;30.60
26262;DHT22;13988;52.446;13.280;2022-07-19T13:07:50;37.00;29.50
26262;DHT22;13988;52.446;13.280;2022-07-19T13:10:16;37.70;29.70
26262;DHT22;13988;52.446;13.280;2022-07-19T13:12:42;36.70;30.00
26262;DHT22;13988;52.446;13.280;2022-07-19T13:15:08;37.30;30.20
26262;DHT22;13988;52.446;13.280;2022-07-19T13:17:34;37.10;29.80
26262;DHT22;13988;52.446;13.280;2022-07-19T13:20:01;36.80;29.60
26262;DHT22;13988;52.446;13.280;2022-07-19T13:22:26;37.30;30.00
26262;DHT22;13988;52.446;13.280;2022-07-19T13:24:52;36.50;30.20
26262;DHT22;13988;52.446;13.280;2022-07-19T13:27:18;36.30;30.00
26262;DHT22;13988;52.446;13.280;2022-07-19T13:29:44;36.90;29.10
26262;DHT22;13988;52.446;13.280;2022-07-19T13:32:10;36.50;30.10
26262;DHT22;13988;52.446;13.280;2022-07-19T13:34:38;37.90;29.30
26262;DHT22;13988;52.446;13.280;2022-07-19T13:37:04;37.40;30.00
26262;DHT22;13988;52.446;13.280;2022-07-19T13:39:30;36.50;30.20
26262;DHT22;13988;52.446;13.280;2022-07-19T13:41:56;37.20;29.40
26262;DHT22;13988;52.446;13.280;2022-07-19T13:44:22;37.30;28.40
26262;DHT22;13988;52.446;13.280;2022-07-19T13:46:47;36.70;28.30
26262;DHT22;13988;52.446;13.280;2022-07-19T13:49:13;36.90;29.90
26262;DHT22;13988;52.446;13.280;2022-07-19T13:51:39;37.10;30.70
26262;DHT22;13988;52.446;13.280;2022-07-19T13:54:05;36.50;30.50
26262;DHT22;13988;52.446;13.280;2022-07-19T13:56:31;37.10;29.70
26262;DHT22;13988;52.446;13.280;2022-07-19T13:58:57;37.20;29.90
26262;DHT22;13988;52.446;13.280;2022-07-19T14:01:22;36.40;29.40
26262;DHT22;13988;52.446;13.280;2022-07-19T14:03:48;36.40;31.20
26262;DHT22;13988;52.446;13.280;2022-07-19T14:06:15;35.70;29.90
26262;DHT22;13988;52.446;13.280;2022-07-19T14:08:41;35.30;30.10
26262;DHT22;13988;52.446;13.280;2022-07-19T14:11:07;35.30;31.20
26262;DHT22;13988;52.446;13.280;2022-07-19T14:13:32;35.90;30.60
26262;DHT22;13988;52.446;13.280;2022-07-19T14:16:00;36.60;30.00
26262;DHT22;13988;52.446;13.280;2022-07-19T14:18:25;36.80;29.50
26262;DHT22;13988;52.446;13.280;2022-07-19T14:20:52;37.20;29.30
26262;DHT22;13988;52.446;13.280;2022-07-19T14:23:17;37.80;29.90
26262;DHT22;13988;52.446;13.280;2022-07-19T14:25:43;37.40;29.60
26262;DHT22;13988;52.446;13.280;2022-07-19T14:28:08;37.20;29.60
26262;DHT22;13988;52.446;13.280;2022-07-19T14:30:34;37.30;29.40
26262;DHT22;13988;52.446;13.280;2022-07-19T14:33:00;37.00;29.00
26262;DHT22;13988;52.446;13.280;2022-07-19T14:35:26;37.00;30.00
26262;DHT22;13988;52.446;13.280;2022-07-19T14:37:52;36.80;28.50
26262;DHT22;13988;52.446;13.280;2022-07-19T14:40:17;35.30;29.00
26262;DHT22;13988;52.446;13.280;2022-07-19T14:42:43;35.40;29.40
26262;DHT22;13988;52.446;13.280;2022-07-19T14:45:09;35.00;30.60
26262;DHT22;13988;52.446;13.280;2022-07-19T14:47:36;35.50;30.90
26262;DHT22;13988;52.446;13.280;2022-07-19T14:50:05;36.40;29.50
26262;DHT22;13988;52.446;13.280;2022-07-19T14:52:31;35.80;30.20
26262;DHT22;13988;52.446;13.280;2022-07-19T14:54:57;35.60;30.50
26262;DHT22;13988;52.446;13.280;2022-07-19T14:57:23;35.30;32.50
26262;DHT22;13988;52.446;13.280;2022-07-19T14:59:49;35.30;31.80
26262;DHT22;13988;52.446;13.280;2022-07-19T15:02:15;35.20;33.40
26262;DHT22;13988;52.446;13.280;2022-07-19T15:04:41;35.90;32.40
26262;DHT22;13988;52.446;13.280;2022-07-19T15:07:06;36.20;33.30
26262;DHT22;13988;52.446;13.280;2022-07-19T15:09:32;36.00;31.90
26262;DHT22;13988;52.446;13.280;2022-07-19T15:11:58;35.10;32.00
26262;DHT22;13988;52.446;13.280;2022-07-19T15:14:29;35.20;32.70
26262;DHT22;13988;52.446;13.280;2022-07-19T15:16:56;34.90;32.10
26262;DHT22;13988;52.446;13.280;2022-07-19T15:19:22;34.80;31.70
26262;DHT22;13988;52.446;13.280;2022-07-19T15:21:47;34.80;32.60
26262;DHT22;13988;52.446;13.280;2022-07-19T15:24:13;35.00;32.70
26262;DHT22;13988;52.446;13.280;2022-07-19T15:26:39;34.80;33.50
26262;DHT22;13988;52.446;13.280;2022-07-19T15:29:04;34.90;32.50
26262;DHT22;13988;52.446;13.280;2022-07-19T15:31:30;34.60;32.40
26262;DHT22;13988;52.446;13.280;2022-07-19T15:33:56;35.10;34.50
26262;DHT22;13988;52.446;13.280;2022-07-19T15:36:22;35.00;33.00
26262;DHT22;13988;52.446;13.280;2022-07-19T15:38:48;34.70;32.50
26262;DHT22;13988;52.446;13.280;2022-07-19T15:41:14;35.30;33.80
26262;DHT22;13988;52.446;13.280;2022-07-19T15:43:40;35.40;34.30
26262;DHT22;13988;52.446;13.280;2022-07-19T15:46:06;34.50;31.90
26262;DHT22;13988;52.446;13.280;2022-07-19T15:48:31;34.30;32.20
26262;DHT22;13988;52.446;13.280;2022-07-19T15:50:57;34.30;33.20
26262;DHT22;13988;52.446;13.280;2022-07-19T15:53:23;34.40;33.50
26262;DHT22;13988;52.446;13.280;2022-07-19T15:55:49;34.20;32.40
26262;DHT22;13988;52.446;13.280;2022-07-19T15:58:17;34.10;32.50
26262;DHT22;13988;52.446;13.280;2022-07-19T16:00:43;34.50;34.50
26262;DHT22;13988;52.446;13.280;2022-07-19T16:03:09;34.80;31.60
26262;DHT22;13988;52.446;13.280;2022-07-19T16:05:34;34.70;33.90